sensor_id;sensor_type;location;lat;lon;timestamp;pressure;altitude;pressure_sealevel;temperature;humidity
36062;BME280;22123;52.412;20.970;2023-05-11T00:01:35;101324.91;;;5.87;100.00
36062;BME280;22123;52.412;20.970;2023-05-11T00:04:01;101325.13;;;5.84;100.00
36062;BME280;22123;52.412;20.970;2023-05-11T00:06:27;101314.44;;;5.73;100.00
36062;BME280;22123;52.412;20.970;2023-05-11T00:08:53;101304.59;;;5.62;100.00
36062;BME280;22123;52.412;20.970;2023-05-11T00:11:19;101306.16;;;5.53;100.00
36062;BME280;22123;52.412;20.970;2023-05-11T00:13:45;101319.41;;;5.55;100.00
36062;BME280;22123;52.412;20.970;2023-05-11T00:16:11;101333.47;;;5.57;100.00
36062;BME280;22123;52.412;20.970;2023-05-11T00:18:37;101323.97;;;5.42;100.00
36062;BME280;22123;52.412;20.970;2023-05-11T00:21:03;101335.63;;;5.40;100.00
36062;BME280;22123;52.412;20.970;2023-05-11T00:23:29;101303.63;;;5.16;100.00
36062;BME280;22123;52.412;20.970;2023-05-11T00:25:55;101325.63;;;5.20;100.00
36062;BME280;22123;52.412;20.970;2023-05-11T00:28:21;101321.09;;;5.09;100.00
36062;BME280;22123;52.412;20.970;2023-05-11T00:30:47;101329.50;;;5.16;100.00
36062;BME280;22123;52.412;20.970;2023-05-11T00:33:12;101316.44;;;5.00;100.00
36062;BME280;22123;52.412;20.970;2023-05-11T00:35:38;101308.16;;;4.92;100.00
36062;BME280;22123;52.412;20.970;2023-05-11T00:38:04;101329.78;;;5.00;100.00
36062;BME280;22123;52.412;20.970;2023-05-11T00:40:31;101332.34;;;5.01;100.00
36062;BME280;22123;52.412;20.970;2023-05-11T00:42:56;101328.31;;;4.96;100.00
36062;BME280;22123;52.412;20.970;2023-05-11T00:45:23;101332.06;;;4.93;100.00
36062;BME280;22123;52.412;20.970;2023-05-11T00:47:49;101317.81;;;4.81;100.00
36062;BME280;22123;52.412;20.970;2023-05-11T00:50:15;101332.75;;;4.84;100.00
36062;BME280;22123;52.412;20.970;2023-05-11T00:52:41;101320.94;;;4.75;100.00
36062;BME280;22123;52.412;20.970;2023-05-11T00:55:08;101324.22;;;4.79;100.00
36062;BME280;22123;52.412;20.970;2023-05-11T00:57:34;101287.84;;;4.53;100.00
36062;BME280;22123;52.412;20.970;2023-05-11T01:00:01;101326.47;;;4.72;100.00
36062;BME280;22123;52.412;20.970;2023-05-11T01:02:27;101281.50;;;4.43;100.00
36062;BME280;22123;52.412;20.970;2023-05-11T01:04:53;101318.22;;;4.64;100.00
36062;BME280;22123;52.412;20.970;2023-05-11T01:07:27;101320.34;;;4.59;100.00
36062;BME280;22123;52.412;20.970;2023-05-11T01:13:01;101323.78;;;4.61;100.00
36062;BME280;22123;52.412;20.970;2023-05-11T01:15:43;101290.78;;;4.38;100.00
36062;BME280;22123;52.412;20.970;2023-05-11T01:21:00;101317.63;;;4.47;100.00
36062;BME280;22123;52.412;20.970;2023-05-11T01:27:02;101309.56;;;4.36;100.00
36062;BME280;22123;52.412;20.970;2023-05-11T01:29:42;101312.53;;;4.31;100.00
36062;BME280;22123;52.412;20.970;2023-05-11T01:32:15;101293.19;;;4.16;100.00
36062;BME280;22123;52.412;20.970;2023-05-11T01:34:43;101278.94;;;4.05;100.00
36062;BME280;22123;52.412;20.970;2023-05-11T01:37:21;101285.22;;;4.04;100.00
36062;BME280;22123;52.412;20.970;2023-05-11T01:39:51;101305.34;;;4.08;100.00
36062;BME280;22123;52.412;20.970;2023-05-11T01:42:21;101288.31;;;3.97;100.00
36062;BME280;22123;52.412;20.970;2023-05-11T01:44:50;101314.19;;;4.08;100.00
36062;BME280;22123;52.412;20.970;2023-05-11T01:47:22;101316.34;;;4.03;100.00
36062;BME280;22123;52.412;20.970;2023-05-11T01:49:50;101308.03;;;3.95;100.00
36062;BME280;22123;52.412;20.970;2023-05-11T01:52:19;101306.97;;;3.85;100.00
36062;BME280;22123;52.412;20.970;2023-05-11T01:54:47;101322.75;;;3.88;100.00
36062;BME280;22123;52.412;20.970;2023-05-11T01:57:14;101323.91;;;3.83;100.00
36062;BME280;22123;52.412;20.970;2023-05-11T01:59:42;101309.53;;;3.73;100.00
36062;BME280;22123;52.412;20.970;2023-05-11T02:02:10;101309.88;;;3.69;100.00
36062;BME280;22123;52.412;20.970;2023-05-11T02:04:37;101323.06;;;3.70;100.00
36062;BME280;22123;52.412;20.970;2023-05-11T02:07:06;101286.00;;;3.41;100.00
36062;BME280;22123;52.412;20.970;2023-05-11T02:09:34;101303.25;;;3.48;100.00
36062;BME280;22123;52.412;20.970;2023-05-11T02:12:02;101305.50;;;3.42;100.00
36062;BME280;22123;52.412;20.970;2023-05-11T02:14:30;101324.56;;;3.48;100.00
36062;BME280;22123;52.412;20.970;2023-05-11T02:16:58;101320.50;;;3.43;100.00
36062;BME280;22123;52.412;20.970;2023-05-11T02:19:25;101285.03;;;3.17;100.00
36062;BME280;22123;52.412;20.970;2023-05-11T02:21:53;101311.03;;;3.26;100.00
36062;BME280;22123;52.412;20.970;2023-05-11T02:24:20;101245.69;;;2.82;100.00
36062;BME280;22123;52.412;20.970;2023-05-11T02:26:47;101325.91;;;3.28;100.00
36062;BME280;22123;52.412;20.970;2023-05-11T02:29:13;101317.91;;;3.16;100.00
36062;BME280;22123;52.412;20.970;2023-05-11T02:31:45;101325.50;;;3.22;100.00
36062;BME280;22123;52.412;20.970;2023-05-11T02:34:16;101304.19;;;3.09;100.00
36062;BME280;22123;52.412;20.970;2023-05-11T02:36:42;101306.94;;;3.07;100.00
36062;BME280;22123;52.412;20.970;2023-05-11T02:39:11;101283.91;;;2.93;100.00
36062;BME280;22123;52.412;20.970;2023-05-11T02:41:40;101320.03;;;3.10;100.00
36062;BME280;22123;52.412;20.970;2023-05-11T02:44:11;101326.41;;;3.08;100.00
36062;BME280;22123;52.412;20.970;2023-05-11T02:46:39;101303.56;;;2.91;100.00
36062;BME280;22123;52.412;20.970;2023-05-11T02:49:08;101297.28;;;2.79;100.00
36062;BME280;22123;52.412;20.970;2023-05-11T02:51:35;101328.72;;;3.00;100.00
36062;BME280;22123;52.412;20.970;2023-05-11T02:54:05;101321.25;;;2.92;100.00
36062;BME280;22123;52.412;20.970;2023-05-11T02:56:31;101243.22;;;2.38;100.00
36062;BME280;22123;52.412;20.970;2023-05-11T02:58:57;101331.06;;;2.91;100.00
36062;BME280;22123;52.412;20.970;2023-05-11T03:01:24;101316.75;;;2.80;100.00
36062;BME280;22123;52.412;20.970;2023-05-11T03:03:50;101294.66;;;2.65;100.00
36062;BME280;22123;52.412;20.970;2023-05-11T03:06:16;101328.13;;;2.82;100.00
36062;BME280;22123;52.412;20.970;2023-05-11T03:08:42;101320.38;;;2.78;100.00
36062;BME280;22123;52.412;20.970;2023-05-11T03:11:08;101294.56;;;2.66;100.00
36062;BME280;22123;52.412;20.970;2023-05-11T03:13:34;101339.25;;;2.88;100.00
36062;BME280;22123;52.412;20.970;2023-05-11T03:16:01;101309.38;;;2.70;100.00
36062;BME280;22123;52.412;20.970;2023-05-11T03:18:27;101333.16;;;2.86;100.00
36062;BME280;22123;52.412;20.970;2023-05-11T03:20:54;101334.00;;;2.87;100.00
36062;BME280;22123;52.412;20.970;2023-05-11T03:23:22;101306.91;;;2.67;100.00
36062;BME280;22123;52.412;20.970;2023-05-11T03:25:48;101327.09;;;2.84;100.00
36062;BME280;22123;52.412;20.970;2023-05-11T03:28:14;101335.91;;;2.85;100.00
36062;BME280;22123;52.412;20.970;2023-05-11T03:30:43;101340.06;;;2.89;100.00
36062;BME280;22123;52.412;20.970;2023-05-11T03:33:10;101308.53;;;2.70;100.00
36062;BME280;22123;52.412;20.970;2023-05-11T03:35:36;101346.03;;;2.92;100.00
36062;BME280;22123;52.412;20.970;2023-05-11T03:38:04;101316.75;;;2.80;100.00
36062;BME280;22123;52.412;20.970;2023-05-11T03:40:30;101314.28;;;2.76;100.00
36062;BME280;22123;52.412;20.970;2023-05-11T03:43:01;101357.03;;;3.01;100.00
36062;BME280;22123;52.412;20.970;2023-05-11T03:45:28;101336.81;;;2.98;100.00
36062;BME280;22123;52.412;20.970;2023-05-11T03:47:56;101329.97;;;2.94;100.00
36062;BME280;22123;52.412;20.970;2023-05-11T03:50:22;101356.22;;;3.13;100.00
36062;BME280;22123;52.412;20.970;2023-05-11T03:52:49;101356.56;;;3.21;100.00
36062;BME280;22123;52.412;20.970;2023-05-11T03:55:15;101322.13;;;3.05;100.00
36062;BME280;22123;52.412;20.970;2023-05-11T03:57:41;101360.28;;;3.31;100.00
36062;BME280;22123;52.412;20.970;2023-05-11T04:00:09;101355.44;;;3.38;100.00
36062;BME280;22123;52.412;20.970;2023-05-11T04:02:35;101359.59;;;3.42;100.00
36062;BME280;22123;52.412;20.970;2023-05-11T04:05:08;101343.63;;;3.42;100.00
36062;BME280;22123;52.412;20.970;2023-05-11T04:07:34;101357.38;;;3.62;100.00
36062;BME280;22123;52.412;20.970;2023-05-11T04:10:01;101349.28;;;3.63;100.00
36062;BME280;22123;52.412;20.970;2023-05-11T04:12:27;101351.94;;;3.76;100.00
36062;BME280;22123;52.412;20.970;2023-05-11T04:14:52;101364.22;;;3.92;100.00
36062;BME280;22123;52.412;20.970;2023-05-11T04:17:18;101348.75;;;3.97;100.00
36062;BME280;22123;52.412;20.970;2023-05-11T04:19:44;101348.84;;;4.08;100.00
36062;BME280;22123;52.412;20.970;2023-05-11T04:22:10;101345.66;;;4.16;100.00
36062;BME280;22123;52.412;20.970;2023-05-11T04:24:36;101330.72;;;4.13;100.00
36062;BME280;22123;52.412;20.970;2023-05-11T04:27:02;101356.06;;;4.32;100.00
36062;BME280;22123;52.412;20.970;2023-05-11T04:29:28;101359.53;;;4.45;100.00
36062;BME280;22123;52.412;20.970;2023-05-11T04:31:54;101354.41;;;4.55;100.00
36062;BME280;22123;52.412;20.970;2023-05-11T04:34:20;101359.41;;;4.60;100.00
36062;BME280;22123;52.412;20.970;2023-05-11T04:36:47;101350.72;;;4.69;100.00
36062;BME280;22123;52.412;20.970;2023-05-11T04:39:13;101360.72;;;4.78;100.00
36062;BME280;22123;52.412;20.970;2023-05-11T04:41:39;101350.13;;;4.90;100.00
36062;BME280;22123;52.412;20.970;2023-05-11T04:44:05;101324.09;;;4.80;100.00
36062;BME280;22123;52.412;20.970;2023-05-11T04:46:31;101349.59;;;5.09;100.00
36062;BME280;22123;52.412;20.970;2023-05-11T04:48:57;101363.72;;;5.22;100.00
36062;BME280;22123;52.412;20.970;2023-05-11T04:51:23;101341.66;;;5.20;100.00
36062;BME280;22123;52.412;20.970;2023-05-11T04:53:49;101337.75;;;5.24;100.00
36062;BME280;22123;52.412;20.970;2023-05-11T04:56:14;101334.63;;;5.30;100.00
36062;BME280;22123;52.412;20.970;2023-05-11T04:58:40;101360.66;;;5.51;100.00
36062;BME280;22123;52.412;20.970;2023-05-11T05:01:06;101346.34;;;5.52;100.00
36062;BME280;22123;52.412;20.970;2023-05-11T05:03:32;101353.91;;;5.69;100.00
36062;BME280;22123;52.412;20.970;2023-05-11T05:05:58;101340.44;;;5.71;100.00
36062;BME280;22123;52.412;20.970;2023-05-11T05:08:24;101357.13;;;5.97;100.00
36062;BME280;22123;52.412;20.970;2023-05-11T05:10:50;101358.00;;;6.09;100.00
36062;BME280;22123;52.412;20.970;2023-05-11T05:13:16;101330.75;;;6.04;100.00
36062;BME280;22123;52.412;20.970;2023-05-11T05:15:42;101354.69;;;6.28;100.00
36062;BME280;22123;52.412;20.970;2023-05-11T05:18:08;101356.88;;;6.34;100.00
36062;BME280;22123;52.412;20.970;2023-05-11T05:20:33;101367.31;;;6.49;100.00
36062;BME280;22123;52.412;20.970;2023-05-11T05:23:00;101350.19;;;6.51;100.00
36062;BME280;22123;52.412;20.970;2023-05-11T05:25:26;101373.25;;;6.75;100.00
36062;BME280;22123;52.412;20.970;2023-05-11T05:27:52;101373.34;;;6.85;100.00
36062;BME280;22123;52.412;20.970;2023-05-11T05:30:18;101368.09;;;6.94;100.00
36062;BME280;22123;52.412;20.970;2023-05-11T05:32:44;101336.09;;;6.93;100.00
36062;BME280;22123;52.412;20.970;2023-05-11T05:35:09;101363.31;;;7.30;100.00
36062;BME280;22123;52.412;20.970;2023-05-11T05:37:35;101355.03;;;7.34;100.00
36062;BME280;22123;52.412;20.970;2023-05-11T05:40:02;101360.06;;;7.48;100.00
36062;BME280;22123;52.412;20.970;2023-05-11T05:42:28;101370.06;;;7.67;100.00
36062;BME280;22123;52.412;20.970;2023-05-11T05:44:53;101352.88;;;7.70;100.00
36062;BME280;22123;52.412;20.970;2023-05-11T05:47:19;101382.94;;;7.94;100.00
36062;BME280;22123;52.412;20.970;2023-05-11T05:49:45;101376.06;;;8.01;100.00
36062;BME280;22123;52.412;20.970;2023-05-11T05:52:11;101367.47;;;8.08;100.00
36062;BME280;22123;52.412;20.970;2023-05-11T05:54:37;101369.53;;;8.25;100.00
36062;BME280;22123;52.412;20.970;2023-05-11T05:57:03;101375.44;;;8.50;100.00
36062;BME280;22123;52.412;20.970;2023-05-11T05:59:29;101372.78;;;8.60;100.00
36062;BME280;22123;52.412;20.970;2023-05-11T06:01:55;101377.22;;;8.70;100.00
36062;BME280;22123;52.412;20.970;2023-05-11T06:04:20;101357.28;;;8.83;100.00
36062;BME280;22123;52.412;20.970;2023-05-11T06:06:46;101369.75;;;9.13;100.00
36062;BME280;22123;52.412;20.970;2023-05-11T06:09:12;101346.84;;;9.19;98.44
36062;BME280;22123;52.412;20.970;2023-05-11T06:11:38;101360.69;;;9.34;98.44
36062;BME280;22123;52.412;20.970;2023-05-11T06:14:04;101376.25;;;9.50;100.00
36062;BME280;22123;52.412;20.970;2023-05-11T06:16:30;101358.44;;;9.49;92.13
36062;BME280;22123;52.412;20.970;2023-05-11T06:18:56;101379.47;;;9.73;92.29
36062;BME280;22123;52.412;20.970;2023-05-11T06:21:22;101379.31;;;9.74;93.93
36062;BME280;22123;52.412;20.970;2023-05-11T06:23:48;101383.13;;;9.82;97.86
36062;BME280;22123;52.412;20.970;2023-05-11T06:26:13;101370.84;;;9.79;97.81
36062;BME280;22123;52.412;20.970;2023-05-11T06:28:39;101380.00;;;9.96;95.43
36062;BME280;22123;52.412;20.970;2023-05-11T06:31:05;101379.28;;;10.04;95.15
36062;BME280;22123;52.412;20.970;2023-05-11T06:33:31;101382.06;;;10.12;94.30
36062;BME280;22123;52.412;20.970;2023-05-11T06:35:57;101381.75;;;10.25;92.63
36062;BME280;22123;52.412;20.970;2023-05-11T06:38:23;101378.06;;;10.26;92.31
36062;BME280;22123;52.412;20.970;2023-05-11T06:40:52;101373.66;;;10.25;92.67
36062;BME280;22123;52.412;20.970;2023-05-11T06:43:18;101350.69;;;10.31;87.12
36062;BME280;22123;52.412;20.970;2023-05-11T06:45:44;101375.31;;;10.73;79.48
36062;BME280;22123;52.412;20.970;2023-05-11T06:48:10;101378.59;;;10.95;81.39
36062;BME280;22123;52.412;20.970;2023-05-11T06:50:36;101361.53;;;10.94;82.06
36062;BME280;22123;52.412;20.970;2023-05-11T06:53:02;101386.34;;;11.16;81.55
36062;BME280;22123;52.412;20.970;2023-05-11T06:55:28;101379.41;;;11.13;81.19
36062;BME280;22123;52.412;20.970;2023-05-11T06:57:54;101377.97;;;11.19;82.79
36062;BME280;22123;52.412;20.970;2023-05-11T07:00:20;101372.19;;;11.32;82.45
36062;BME280;22123;52.412;20.970;2023-05-11T07:02:46;101382.84;;;11.60;76.26
36062;BME280;22123;52.412;20.970;2023-05-11T07:05:12;101371.88;;;11.79;72.49
36062;BME280;22123;52.412;20.970;2023-05-11T07:07:38;101362.44;;;12.02;67.10
36062;BME280;22123;52.412;20.970;2023-05-11T07:10:05;101375.16;;;12.52;65.42
36062;BME280;22123;52.412;20.970;2023-05-11T07:12:31;101304.41;;;12.40;62.25
36062;BME280;22123;52.412;20.970;2023-05-11T07:14:56;101367.56;;;13.07;58.44
36062;BME280;22123;52.412;20.970;2023-05-11T07:17:22;101363.34;;;13.20;62.68
36062;BME280;22123;52.412;20.970;2023-05-11T07:19:48;101369.75;;;13.28;62.18
36062;BME280;22123;52.412;20.970;2023-05-11T07:22:14;101367.13;;;13.44;56.95
36062;BME280;22123;52.412;20.970;2023-05-11T07:24:40;101381.81;;;13.66;58.29
36062;BME280;22123;52.412;20.970;2023-05-11T07:27:06;101356.41;;;13.76;59.02
36062;BME280;22123;52.412;20.970;2023-05-11T07:29:31;101374.81;;;14.05;55.49
36062;BME280;22123;52.412;20.970;2023-05-11T07:31:57;101341.13;;;14.07;52.93
36062;BME280;22123;52.412;20.970;2023-05-11T07:34:23;101346.94;;;14.44;47.22
36062;BME280;22123;52.412;20.970;2023-05-11T07:36:49;101366.53;;;14.86;45.55
36062;BME280;22123;52.412;20.970;2023-05-11T07:39:15;101342.75;;;14.96;47.62
36062;BME280;22123;52.412;20.970;2023-05-11T07:41:40;101357.19;;;15.20;49.61
36062;BME280;22123;52.412;20.970;2023-05-11T07:44:06;101343.41;;;15.44;44.72
36062;BME280;22123;52.412;20.970;2023-05-11T07:46:32;101358.06;;;15.96;43.82
36062;BME280;22123;52.412;20.970;2023-05-11T07:48:58;101362.19;;;16.22;39.54
36062;BME280;22123;52.412;20.970;2023-05-11T07:51:23;101348.00;;;16.42;39.17
36062;BME280;22123;52.412;20.970;2023-05-11T07:53:49;101362.00;;;16.75;36.77
36062;BME280;22123;52.412;20.970;2023-05-11T07:56:15;101355.66;;;17.04;36.36
36062;BME280;22123;52.412;20.970;2023-05-11T07:58:41;101343.16;;;17.32;34.17
36062;BME280;22123;52.412;20.970;2023-05-11T08:01:07;101356.47;;;17.70;33.94
36062;BME280;22123;52.412;20.970;2023-05-11T08:03:32;101342.47;;;17.80;35.92
36062;BME280;22123;52.412;20.970;2023-05-11T08:05:58;101366.88;;;18.16;35.97
36062;BME280;22123;52.412;20.970;2023-05-11T08:08:24;101352.75;;;18.41;35.21
36062;BME280;22123;52.412;20.970;2023-05-11T08:10:50;101352.88;;;18.74;34.22
36062;BME280;22123;52.412;20.970;2023-05-11T08:13:16;101286.28;;;18.49;36.37
36062;BME280;22123;52.412;20.970;2023-05-11T08:15:42;101339.53;;;19.06;33.96
36062;BME280;22123;52.412;20.970;2023-05-11T08:18:08;101332.22;;;19.34;33.20
36062;BME280;22123;52.412;20.970;2023-05-11T08:20:34;101334.31;;;19.52;33.59
36062;BME280;22123;52.412;20.970;2023-05-11T08:23:00;101321.06;;;19.75;35.26
36062;BME280;22123;52.412;20.970;2023-05-11T08:25:25;101327.16;;;19.71;35.84
36062;BME280;22123;52.412;20.970;2023-05-11T08:27:51;101332.41;;;19.99;31.90
36062;BME280;22123;52.412;20.970;2023-05-11T08:30:17;101327.13;;;20.11;33.12
36062;BME280;22123;52.412;20.970;2023-05-11T08:32:43;101337.41;;;20.15;37.16
36062;BME280;22123;52.412;20.970;2023-05-11T08:35:09;101324.28;;;20.38;34.05
36062;BME280;22123;52.412;20.970;2023-05-11T08:37:35;101335.72;;;20.80;31.38
36062;BME280;22123;52.412;20.970;2023-05-11T08:40:01;101315.53;;;20.61;32.95
36062;BME280;22123;52.412;20.970;2023-05-11T08:42:28;101337.88;;;20.58;32.78
36062;BME280;22123;52.412;20.970;2023-05-11T08:44:57;101320.41;;;20.59;33.39
36062;BME280;22123;52.412;20.970;2023-05-11T08:47:25;101334.69;;;20.61;32.61
36062;BME280;22123;52.412;20.970;2023-05-11T08:49:51;101312.50;;;20.44;31.88
36062;BME280;22123;52.412;20.970;2023-05-11T08:52:18;101330.97;;;20.48;33.08
36062;BME280;22123;52.412;20.970;2023-05-11T08:54:45;101329.63;;;20.19;33.51
36062;BME280;22123;52.412;20.970;2023-05-11T08:57:12;101314.94;;;20.00;31.40
36062;BME280;22123;52.412;20.970;2023-05-11T08:59:40;101319.16;;;20.03;31.04
36062;BME280;22123;52.412;20.970;2023-05-11T09:02:09;101303.88;;;19.82;31.30
36062;BME280;22123;52.412;20.970;2023-05-11T09:04:38;101305.72;;;19.61;33.51
36062;BME280;22123;52.412;20.970;2023-05-11T09:07:04;101315.41;;;19.43;32.39
36062;BME280;22123;52.412;20.970;2023-05-11T09:09:31;101311.22;;;19.34;31.08
36062;BME280;22123;52.412;20.970;2023-05-11T09:11:57;101321.09;;;19.28;31.23
36062;BME280;22123;52.412;20.970;2023-05-11T09:14:23;101300.06;;;18.96;32.90
36062;BME280;22123;52.412;20.970;2023-05-11T09:16:49;101323.06;;;18.80;33.04
36062;BME280;22123;52.412;20.970;2023-05-11T09:19:14;101318.84;;;18.64;32.44
36062;BME280;22123;52.412;20.970;2023-05-11T09:21:40;101324.91;;;18.59;33.71
36062;BME280;22123;52.412;20.970;2023-05-11T09:24:09;101301.53;;;18.36;33.33
36062;BME280;22123;52.412;20.970;2023-05-11T09:26:35;101311.41;;;18.37;36.32
36062;BME280;22123;52.412;20.970;2023-05-11T09:29:01;101294.34;;;18.15;36.61
36062;BME280;22123;52.412;20.970;2023-05-11T09:31:40;101318.31;;;18.33;32.69
36062;BME280;22123;52.412;20.970;2023-05-11T09:34:17;101327.34;;;18.34;31.19
36062;BME280;22123;52.412;20.970;2023-05-11T09:36:45;101322.88;;;18.19;33.04
36062;BME280;22123;52.412;20.970;2023-05-11T09:39:12;101315.41;;;18.00;35.79
36062;BME280;22123;52.412;20.970;2023-05-11T09:41:38;101299.38;;;17.83;36.37
36062;BME280;22123;52.412;20.970;2023-05-11T09:46:29;101309.53;;;17.68;36.72
36062;BME280;22123;52.412;20.970;2023-05-11T09:48:59;101317.69;;;17.68;40.21
36062;BME280;22123;52.412;20.970;2023-05-11T09:51:33;101286.97;;;17.46;40.03
36062;BME280;22123;52.412;20.970;2023-05-11T09:54:00;101275.25;;;17.45;39.36
36062;BME280;22123;52.412;20.970;2023-05-11T09:56:48;101301.16;;;17.69;37.93
36062;BME280;22123;52.412;20.970;2023-05-11T09:59:16;101309.03;;;17.58;40.67
36062;BME280;22123;52.412;20.970;2023-05-11T10:01:42;101287.25;;;17.58;37.47
36062;BME280;22123;52.412;20.970;2023-05-11T10:04:08;101305.84;;;17.82;33.04
36062;BME280;22123;52.412;20.970;2023-05-11T10:06:50;101303.03;;;17.97;32.61
36062;BME280;22123;52.412;20.970;2023-05-11T10:09:17;101304.63;;;18.20;31.93
36062;BME280;22123;52.412;20.970;2023-05-11T10:11:45;101297.56;;;18.32;33.69
36062;BME280;22123;52.412;20.970;2023-05-11T10:14:12;101307.84;;;18.37;34.33
36062;BME280;22123;52.412;20.970;2023-05-11T10:16:40;101272.16;;;18.32;39.20
36062;BME280;22123;52.412;20.970;2023-05-11T10:19:06;101279.38;;;18.59;34.47
36062;BME280;22123;52.412;20.970;2023-05-11T10:21:33;101289.75;;;18.84;32.26
36062;BME280;22123;52.412;20.970;2023-05-11T10:24:01;101263.56;;;19.10;38.52
36062;BME280;22123;52.412;20.970;2023-05-11T10:26:27;101261.22;;;19.40;35.48
36062;BME280;22123;52.412;20.970;2023-05-11T10:28:55;101280.22;;;20.14;31.38
36062;BME280;22123;52.412;20.970;2023-05-11T10:31:21;101273.47;;;20.62;31.91
36062;BME280;22123;52.412;20.970;2023-05-11T10:33:51;101280.28;;;21.67;30.94
36062;BME280;22123;52.412;20.970;2023-05-11T10:36:17;101273.34;;;22.69;32.50
36062;BME280;22123;52.412;20.970;2023-05-11T10:38:43;101264.63;;;23.85;30.62
36062;BME280;22123;52.412;20.970;2023-05-11T10:41:24;101247.59;;;25.15;26.35
36062;BME280;22123;52.412;20.970;2023-05-11T10:44:04;101269.03;;;26.03;25.03
36062;BME280;22123;52.412;20.970;2023-05-11T10:52:10;101256.56;;;25.79;27.18
36062;BME280;22123;52.412;20.970;2023-05-11T10:54:54;101263.72;;;25.24;26.35
36062;BME280;22123;52.412;20.970;2023-05-11T10:57:40;101270.81;;;25.03;26.93
36062;BME280;22123;52.412;20.970;2023-05-11T11:03:10;101237.91;;;24.79;29.07
36062;BME280;22123;52.412;20.970;2023-05-11T11:05:36;101269.09;;;24.68;28.72
36062;BME280;22123;52.412;20.970;2023-05-11T11:08:02;101259.19;;;24.55;30.28
36062;BME280;22123;52.412;20.970;2023-05-11T11:10:30;101263.25;;;24.64;26.43
36062;BME280;22123;52.412;20.970;2023-05-11T11:13:08;101259.53;;;24.58;26.47
36062;BME280;22123;52.412;20.970;2023-05-11T11:20:52;101253.16;;;24.41;27.50
36062;BME280;22123;52.412;20.970;2023-05-11T11:26:11;101252.19;;;24.76;28.99
36062;BME280;22123;52.412;20.970;2023-05-11T11:31:31;101252.03;;;25.16;26.86
36062;BME280;22123;52.412;20.970;2023-05-11T11:34:30;101251.47;;;25.14;25.42
36062;BME280;22123;52.412;20.970;2023-05-11T11:39:21;101242.16;;;24.87;28.80
36062;BME280;22123;52.412;20.970;2023-05-11T11:42:05;101244.06;;;24.69;27.05
36062;BME280;22123;52.412;20.970;2023-05-11T11:44:33;101254.50;;;24.38;27.93
36062;BME280;22123;52.412;20.970;2023-05-11T11:47:13;101224.38;;;23.79;25.67
36062;BME280;22123;52.412;20.970;2023-05-11T11:49:40;101234.56;;;23.43;28.27
36062;BME280;22123;52.412;20.970;2023-05-11T11:52:11;101233.75;;;23.19;27.85
36062;BME280;22123;52.412;20.970;2023-05-11T11:54:43;101244.81;;;23.00;30.60
36062;BME280;22123;52.412;20.970;2023-05-11T11:59:54;101223.78;;;22.52;30.17
36062;BME280;22123;52.412;20.970;2023-05-11T12:02:21;101230.00;;;22.59;28.81
36062;BME280;22123;52.412;20.970;2023-05-11T12:04:55;101246.81;;;22.51;31.20
36062;BME280;22123;52.412;20.970;2023-05-11T12:07:23;101233.19;;;22.44;29.79
36062;BME280;22123;52.412;20.970;2023-05-11T12:09:50;101198.38;;;21.96;30.35
36062;BME280;22123;52.412;20.970;2023-05-11T12:12:16;101250.81;;;22.18;32.62
36062;BME280;22123;52.412;20.970;2023-05-11T12:14:44;101246.50;;;22.10;27.88
36062;BME280;22123;52.412;20.970;2023-05-11T12:17:09;101252.81;;;21.92;29.93
36062;BME280;22123;52.412;20.970;2023-05-11T12:19:35;101248.63;;;21.71;30.91
36062;BME280;22123;52.412;20.970;2023-05-11T12:22:01;101223.28;;;21.50;34.64
36062;BME280;22123;52.412;20.970;2023-05-11T12:24:27;101225.38;;;21.55;32.20
36062;BME280;22123;52.412;20.970;2023-05-11T12:26:56;101228.97;;;21.56;32.58
36062;BME280;22123;52.412;20.970;2023-05-11T12:29:22;101202.66;;;21.29;34.02
36062;BME280;22123;52.412;20.970;2023-05-11T12:31:48;101221.59;;;21.31;33.23
36062;BME280;22123;52.412;20.970;2023-05-11T12:34:14;101237.97;;;21.37;32.55
36062;BME280;22123;52.412;20.970;2023-05-11T12:36:41;101207.88;;;21.12;33.95
36062;BME280;22123;52.412;20.970;2023-05-11T12:39:07;101205.63;;;21.02;36.23
36062;BME280;22123;52.412;20.970;2023-05-11T12:41:33;101208.59;;;21.01;33.68
36062;BME280;22123;52.412;20.970;2023-05-11T12:43:59;101220.00;;;20.98;32.04
36062;BME280;22123;52.412;20.970;2023-05-11T12:46:25;101165.06;;;20.42;32.13
36062;BME280;22123;52.412;20.970;2023-05-11T12:48:51;101180.13;;;20.52;28.49
36062;BME280;22123;52.412;20.970;2023-05-11T12:56:53;101201.91;;;20.33;33.33
36062;BME280;22123;52.412;20.970;2023-05-11T12:59:35;101208.84;;;20.36;34.01
36062;BME280;22123;52.412;20.970;2023-05-11T13:04:34;101185.88;;;20.05;38.62
36062;BME280;22123;52.412;20.970;2023-05-11T13:07:00;101200.38;;;20.05;36.57
36062;BME280;22123;52.412;20.970;2023-05-11T13:09:26;101186.34;;;19.95;40.26
36062;BME280;22123;52.412;20.970;2023-05-11T13:12:17;101207.31;;;20.01;38.67
36062;BME280;22123;52.412;20.970;2023-05-11T13:14:45;101196.22;;;19.96;37.66
36062;BME280;22123;52.412;20.970;2023-05-11T13:17:11;101209.38;;;20.06;32.97
36062;BME280;22123;52.412;20.970;2023-05-11T13:19:37;101181.09;;;19.87;36.59
36062;BME280;22123;52.412;20.970;2023-05-11T13:22:04;101204.38;;;20.03;37.77
36062;BME280;22123;52.412;20.970;2023-05-11T13:24:30;101170.00;;;19.82;39.05
36062;BME280;22123;52.412;20.970;2023-05-11T13:26:57;101200.81;;;20.02;36.90